Stewarts Point, CA (95480)

9:33 AM PDT on August 30, 2015 (GMT -0700)
Stillwater Cove | | Change Station
CLOSE
Current Station
Personal Weather Station
Location: Jenner, CA
Elevation: 105 ft
Nearby Weather Stations
Active Advisory: Beach Hazard Statement Active Notice: Record Report

Elev 105 ft 38.55 °N, 123.30 °W | Updated 8 minutes ago

Partly Cloudy
Partly Cloudy
65.1 °F
Feels Like 65.1 °F
N
0.0
Wind Variable Wind from WNW
Gusts 2.0 mph

Today
High -- | Low -- °F
--% Chance of Precip.
Yesterday
High -- | Low -- °F
Precip. -- in
6:40 AM 7:46 PM
Full, 99% visible
Pressure 30.02 in
Visibility 10.0 miles
Clouds Few 100 ft
Dew Point 61 °F
Humidity 87%
Rainfall 0.00 in
Snow Depth Not available.
UV 2 out of 12
Pollen 6.40 out of 12
Air Quality Not available.
Flu Activity Not available.
METAR KSTS 301553Z 14004KT 10SM FEW001 16/14 A3003 RMK AO2 SLP166 T01560144 $
Pressure 30.02 in
Visibility 10.0 miles
Clouds Few 100 ft
Dew Point 61 °F
Humidity 87%
Rainfall 0.00 in
Snow Depth Not available.
UV 2 out of 12
Pollen 6.40 out of 12
Air Quality Not available.
Flu Activity Not available.
METAR KSTS 301553Z 14004KT 10SM FEW001 16/14 A3003 RMK AO2 SLP166 T01560144 $

10-Day Weather Forecast

×

Almanac

Astronomy

Aug. 30, 2015 Rise Set
Actual Time
Civil Twilight
Nautical Twilight
Astronomical Twilight
Moon
Length of Visible Light
Length of Day
Tomorrow will be .
, % of the Moon is Illuminated

Today's Extremes

State Highs State Lows

Community

WunderPhotos

Upload Photos

1,851,008 photos uploaded!

WunderBlogs® & News

Nearby

Air Quality

  Air Quality AQ Index Pollutant
Not available.

Snow Depth

Station Depth Elevation

Earthquake Activity

City Distance Mag. Time & Date
Minimum magnitude displayed is 2.5.

Coastal Water Temperatures

Place Temperature

Stations

Nearby Weather Stations

Station Location Temp. Windchill Dew Point Humidity Wind Precip. Elev Updated Type
                   
Beach Hazard Statement
Statement as of 2:54 PM PDT on August 29, 2015

... Beach hazards statement in effect from Sunday morning through
Sunday evening...

* location... all west facing beaches of Sonoma to Monterey
County. Northwest facing beaches will also be impacted to a
lesser degree.

* Timing... Sunday morning 6am to Sunday evening 9pm.

* Impacts... exceptionally strong rip currents and large shore
breaks.

Precautionary/preparedness actions...

A beach hazard statement for rip currents means that conditions
are present to support a heightened risk of strong rip currents.
Rip currents are typically more frequent and stronger in the
vicinity of jetties... inlets... and piers. Swimmers caught in a
rip current should swim parallel to the coast to escape the rip
current before trying to swim for shore. Swimmers should always
swim near a lifeguard.


Drp

Http://www.Weather.Gov/sanfrancisco